createdAt,value
2019-05-01T00:03:36.419Z,14.17
2019-05-01T00:08:42.960Z,13.87
2019-05-01T00:13:51.962Z,14.17
2019-05-01T00:18:59.599Z,14.57
2019-05-01T00:24:07.243Z,15.77
2019-05-01T00:29:13.830Z,14.37
2019-05-01T00:34:20.970Z,14.50
2019-05-01T00:39:27.981Z,14.63
2019-05-01T00:44:34.788Z,15.47
2019-05-01T00:49:41.714Z,14.47
2019-05-01T00:54:49.902Z,14.90
2019-05-01T01:00:05.060Z,14.10
2019-05-01T01:05:11.361Z,14.60
2019-05-01T01:10:17.458Z,15.00
2019-05-01T01:15:26.235Z,15.63
2019-05-01T01:20:33.318Z,15.40
2019-05-01T01:25:39.733Z,15.23
2019-05-01T01:30:56.756Z,16.13
2019-05-01T01:36:04.009Z,14.57
2019-05-01T01:41:10.320Z,15.27
2019-05-01T01:46:17.989Z,14.73
2019-05-01T01:51:24.773Z,15.93
2019-05-01T01:56:30.396Z,15.10
2019-05-01T02:01:54.037Z,14.27
2019-05-01T02:07:01.702Z,15.10
2019-05-01T02:12:11.188Z,14.70
2019-05-01T02:17:20.229Z,15.33
2019-05-01T02:22:27.873Z,13.73
2019-05-01T02:27:41.242Z,15.57
2019-05-01T02:32:48.258Z,15.33
2019-05-01T02:37:55.864Z,15.53
2019-05-01T02:43:03.823Z,14.80
2019-05-01T02:48:11.891Z,14.83
2019-05-01T02:53:22.983Z,15.17
2019-05-01T02:58:29.452Z,14.60
2019-05-01T03:03:36.249Z,14.80
2019-05-01T03:08:42.705Z,14.67
2019-05-01T03:13:51.033Z,15.73
2019-05-01T03:19:00.674Z,15.60
2019-05-01T03:24:25.494Z,15.63
2019-05-01T03:29:31.222Z,16.43
2019-05-01T03:34:38.623Z,16.20
2019-05-01T03:39:45.586Z,17.00
2019-05-01T03:44:53.391Z,15.63
2019-05-01T03:49:59.440Z,15.63
2019-05-01T03:55:05.313Z,15.47
2019-05-01T04:00:13.812Z,18.60
2019-05-01T04:05:22.429Z,19.03
2019-05-01T04:10:27.573Z,19.63
2019-05-01T04:15:34.940Z,18.33
2019-05-01T04:20:41.663Z,18.00
2019-05-01T04:25:49.010Z,18.63
2019-05-01T04:31:20.193Z,18.17
2019-05-01T04:36:31.547Z,18.63
2019-05-01T04:41:37.199Z,15.87
2019-05-01T04:46:42.679Z,16.70
2019-05-01T04:51:50.379Z,17.27
2019-05-01T04:56:57.437Z,16.70
2019-05-01T05:02:07.414Z,16.70
2019-05-01T05:07:15.268Z,16.30
2019-05-01T05:12:41.204Z,17.33
2019-05-01T05:17:46.525Z,17.33
2019-05-01T05:22:53.673Z,16.90
2019-05-01T05:28:00.508Z,17.03
2019-05-01T05:33:18.135Z,17.07
2019-05-01T05:38:39.520Z,16.53
2019-05-01T05:43:48.844Z,17.17
2019-05-01T05:48:56.128Z,18.13
2019-05-01T05:54:31.510Z,18.13
2019-05-01T06:22:53.046Z,20.23
2019-05-01T06:27:59.563Z,19.60
2019-05-01T06:33:09.413Z,18.40
2019-05-01T06:38:18.266Z,17.90
2019-05-01T06:44:08.319Z,18.13
2019-05-01T06:49:29.288Z,17.50
2019-05-01T07:00:43.057Z,17.47
2019-05-01T07:05:54.455Z,17.63
2019-05-01T07:10:58.864Z,16.70
2019-05-01T07:16:09.287Z,16.77
2019-05-01T07:26:47.925Z,16.00
2019-05-01T07:31:57.274Z,17.37
2019-05-01T07:37:08.511Z,16.37
2019-05-01T07:42:34.414Z,15.77
2019-05-01T07:47:44.333Z,15.60
2019-05-01T07:52:52.243Z,16.67
2019-05-01T07:57:59.234Z,16.90
2019-05-01T08:03:07.287Z,17.47
2019-05-01T08:08:13.365Z,16.73
2019-05-01T08:13:20.102Z,17.80
2019-05-01T08:18:32.613Z,17.17
2019-05-01T08:23:42.679Z,17.53
2019-05-01T08:29:06.925Z,18.23
2019-05-01T08:34:15.030Z,19.33
2019-05-01T08:39:27.762Z,19.47
2019-05-01T08:45:06.914Z,18.33
2019-05-01T08:50:25.095Z,18.27
2019-05-01T08:55:35.390Z,19.10
2019-05-01T09:00:42.845Z,17.53
2019-05-01T09:05:52.138Z,16.47
2019-05-01T09:11:02.338Z,19.03
2019-05-01T09:16:12.337Z,18.57
2019-05-01T09:21:18.722Z,17.97
2019-05-01T09:26:45.433Z,18.50
2019-05-01T09:32:40.950Z,17.93
2019-05-01T09:38:07.333Z,18.37
2019-05-01T09:43:19.064Z,16.90
2019-05-01T09:48:25.965Z,18.27
2019-05-01T09:53:47.364Z,18.37
2019-05-01T09:58:54.765Z,18.47
2019-05-01T10:04:01.632Z,19.70
2019-05-01T10:09:12.099Z,19.77
2019-05-01T10:14:36.364Z,19.20
2019-05-01T10:19:42.726Z,18.87
2019-05-01T10:24:48.171Z,18.47
2019-05-01T10:30:14.279Z,18.13
2019-05-01T10:35:42.970Z,19.57
2019-05-01T10:40:48.047Z,20.27
2019-05-01T10:45:54.858Z,19.60
2019-05-01T10:51:00.992Z,20.47
2019-05-01T10:56:26.342Z,22.27
2019-05-01T11:01:51.187Z,27.00
2019-05-01T11:06:58.141Z,26.23
2019-05-01T11:12:03.573Z,27.57
2019-05-01T11:17:09.736Z,27.77
2019-05-01T11:22:16.406Z,27.50
2019-05-01T11:27:23.380Z,27.30
2019-05-01T11:32:48.344Z,26.63
2019-05-01T11:38:03.314Z,24.53
2019-05-01T11:43:09.017Z,25.27
2019-05-01T11:48:17.867Z,24.57
2019-05-01T11:53:24.629Z,24.60
2019-05-01T11:58:32.399Z,24.43
2019-05-01T12:03:44.401Z,24.93
2019-05-01T12:08:54.963Z,23.93
2019-05-01T12:14:02.077Z,25.73
2019-05-01T12:19:09.010Z,24.37
2019-05-01T12:24:15.035Z,24.27
2019-05-01T12:29:20.433Z,25.60
2019-05-01T12:34:25.834Z,26.43
2019-05-01T12:39:33.025Z,25.77
2019-05-01T12:44:39.060Z,26.47
2019-05-01T12:49:46.970Z,28.07
2019-05-01T12:54:59.346Z,27.20
2019-05-01T13:00:08.952Z,27.53
2019-05-01T13:05:12.825Z,29.40
2019-05-01T13:10:19.178Z,29.30
2019-05-01T13:15:27.715Z,29.03
2019-05-01T13:20:33.386Z,28.60
2019-05-01T13:25:40.368Z,31.87
2019-05-01T13:30:57.112Z,29.93
2019-05-01T13:36:08.397Z,30.77
2019-05-01T13:41:14.136Z,31.53
2019-05-01T13:46:20.824Z,31.03
2019-05-01T13:51:27.151Z,31.77
2019-05-01T13:56:35.509Z,29.60
2019-05-01T14:01:41.381Z,29.50
2019-05-01T14:06:47.818Z,29.03
2019-05-01T14:12:05.386Z,28.00
2019-05-01T14:17:12.357Z,27.73
2019-05-01T14:22:40.886Z,27.27
2019-05-01T14:27:48.314Z,27.33
2019-05-01T14:32:56.205Z,27.47
2019-05-01T14:38:03.828Z,26.93
2019-05-01T14:43:10.158Z,26.67
2019-05-01T14:48:18.436Z,25.80
2019-05-01T14:53:25.277Z,24.50
2019-05-01T14:58:31.947Z,27.70
2019-05-01T15:03:38.303Z,27.40
2019-05-01T15:08:49.389Z,27.37
2019-05-01T15:14:22.715Z,26.93
2019-05-01T15:19:31.786Z,29.30
2019-05-01T15:24:38.955Z,28.97
2019-05-01T15:29:47.526Z,28.93
2019-05-01T15:34:54.281Z,31.10
2019-05-01T15:40:10.280Z,30.57
2019-05-01T15:45:18.493Z,31.53
2019-05-01T15:50:27.006Z,32.57
2019-05-01T15:55:33.586Z,30.67
2019-05-01T16:00:38.841Z,31.40
2019-05-01T16:05:45.537Z,29.47
2019-05-01T16:11:05.492Z,28.43
2019-05-01T16:16:12.687Z,28.57
2019-05-01T16:21:19.125Z,27.53
2019-05-01T16:26:25.055Z,26.67
2019-05-01T16:31:33.139Z,26.57
2019-05-01T16:36:38.703Z,28.07
2019-05-01T16:41:47.368Z,26.93
2019-05-01T16:46:55.181Z,27.17
2019-05-01T16:52:04.881Z,26.97
2019-05-01T16:57:14.287Z,26.47
2019-05-01T17:02:47.702Z,24.73
2019-05-01T17:08:17.134Z,24.17
2019-05-01T17:13:24.165Z,23.10
2019-05-01T17:18:30.408Z,22.33
2019-05-01T17:23:39.319Z,21.37
2019-05-01T17:28:48.901Z,23.93
2019-05-01T17:33:55.495Z,21.67
2019-05-01T17:39:01.875Z,25.87
2019-05-01T17:44:09.324Z,25.30
2019-05-01T17:49:18.149Z,25.77
2019-05-01T17:54:27.005Z,23.63
2019-05-01T17:59:34.385Z,23.90
2019-05-01T18:04:54.453Z,25.10
2019-05-01T18:10:01.118Z,25.80
2019-05-01T18:15:08.277Z,24.67
2019-05-01T18:20:21.106Z,25.83
2019-05-01T18:25:37.633Z,24.47
2019-05-01T18:30:46.599Z,25.37
2019-05-01T18:35:54.500Z,25.63
2019-05-01T18:41:06.799Z,25.63
2019-05-01T18:46:14.843Z,24.77
2019-05-01T18:51:25.004Z,24.50
2019-05-01T18:56:31.499Z,24.97
2019-05-01T19:01:37.672Z,23.70
2019-05-01T19:06:48.517Z,22.87
2019-05-01T19:11:57.349Z,23.93
2019-05-01T19:17:29.081Z,23.10
2019-05-01T19:22:35.844Z,23.83
2019-05-01T19:27:41.457Z,23.93
2019-05-01T19:32:49.145Z,23.70
2019-05-01T19:37:57.607Z,23.33
2019-05-01T19:43:05.482Z,25.13
2019-05-01T19:48:11.250Z,23.87
2019-05-01T19:53:17.794Z,23.90
2019-05-01T19:58:24.443Z,23.73
2019-05-01T20:03:36.299Z,24.23
2019-05-01T20:08:39.139Z,25.90
2019-05-01T20:13:45.971Z,25.27
2019-05-01T20:18:52.669Z,27.53
2019-05-01T20:24:04.497Z,26.63
2019-05-01T20:29:09.788Z,27.67
2019-05-01T20:34:18.730Z,27.97
2019-05-01T20:39:26.053Z,26.23
2019-05-01T20:44:32.181Z,25.63
2019-05-01T20:49:41.377Z,26.67
2019-05-01T20:54:46.823Z,26.53
2019-05-01T20:59:52.966Z,24.87
2019-05-01T21:05:17.980Z,24.77
2019-05-01T21:10:29.811Z,27.17
2019-05-01T21:15:35.543Z,25.97
2019-05-01T21:20:43.866Z,26.73
2019-05-01T21:25:53.898Z,26.83
2019-05-01T21:31:00.487Z,28.37
2019-05-01T21:36:08.586Z,26.03
2019-05-01T21:41:18.128Z,28.07
2019-05-01T21:46:23.757Z,28.97
2019-05-01T21:51:32.846Z,27.33
2019-05-01T21:56:41.569Z,27.83
2019-05-01T22:01:47.958Z,25.73
2019-05-01T22:06:54.190Z,25.27
2019-05-01T22:12:00.643Z,24.97
2019-05-01T22:17:15.815Z,23.80
2019-05-01T22:22:38.681Z,23.27
2019-05-01T22:27:50.745Z,23.83
2019-05-01T22:32:58.232Z,22.07
2019-05-01T22:38:06.255Z,22.00
2019-05-01T22:43:14.921Z,21.50
2019-05-01T22:48:21.139Z,20.97
2019-05-01T22:53:27.478Z,21.10
2019-05-01T22:58:33.899Z,22.00
2019-05-01T23:03:58.991Z,20.93
2019-05-01T23:09:07.058Z,20.63
2019-05-01T23:14:14.138Z,18.63
2019-05-01T23:19:22.705Z,19.87
2019-05-01T23:24:27.065Z,20.47
2019-05-01T23:29:36.688Z,19.50
2019-05-01T23:34:44.030Z,19.63
2019-05-01T23:39:50.785Z,18.37
2019-05-01T23:44:57.949Z,18.67
2019-05-01T23:50:03.410Z,17.93
2019-05-01T23:55:09.934Z,17.20
